.
WxDataArchive / Data Records for 2015-02-12
2015-02-11 February 2015 2015-02-13

Data Records for Thursday, 12 February 2015

Time	Temp	Chill	HIndex	Humid	Dewpt	 Wind 	HiWind	WindDir	Rain 	Barom
-----	----	-----	------	-----	-----	------	------	-------	-----	-----
00:00	29.4	29.4	29.4	73	21.8	0	2	270	0.00	29.981 
00:05	29.4	29.4	29.4	73	21.8	0	2	270	0.00	29.981 
00:10	29.4	29.4	29.4	74	22.2	0	2	270	0.00	29.981 
00:15	29.1	29.1	29.1	75	22.2	2	4	248	0.00	29.985 
00:20	28.8	28.8	28.8	77	22.5	1	3	248	0.00	29.985 
00:25	28.4	28.4	28.4	79	22.7	1	3	248	0.00	29.985 
00:30	28.2	28.2	28.2	80	22.8	1	3	248	0.00	29.981 
00:35	28.1	28.1	28.1	81	23.0	1	3	248	0.00	29.981 
00:40	28.1	28.1	28.1	81	23.0	2	4	248	0.00	29.981 
00:45	28.1	28.1	28.1	81	23.0	2	3	248	0.00	29.979 
00:50	28.1	28.1	28.1	81	23.0	3	6	270	0.00	29.979 
00:55	28.1	28.1	28.1	81	23.0	2	3	292	0.00	29.979 
01:00	27.3	27.3	27.3	79	21.7	3	6	292	0.00	29.989 
01:05	26.9	26.9	26.9	78	21.0	2	6	315	0.00	29.989 
01:10	26.6	21.8	26.6	77	20.4	4	9	338	0.00	29.989 
01:15	26.6	26.6	26.6	77	20.4	3	9	315	0.00	29.993 
01:20	26.6	26.6	26.6	75	19.8	3	5	292	0.00	29.993 
01:25	26.4	26.4	26.4	73	18.9	3	7	315	0.00	29.993 
01:30	26.4	26.4	26.4	72	18.6	3	7	292	0.00	29.995 
01:35	26.3	26.3	26.3	72	18.5	2	6	270	0.00	29.995 
01:40	26.3	26.3	26.3	72	18.5	1	4	315	0.00	29.995 
01:45	26.3	26.3	26.3	73	18.8	1	5	338	0.00	29.995 
01:50	26.1	26.1	26.1	73	18.7	1	4	270	0.00	29.995 
01:55	26.0	26.0	26.0	72	18.2	2	6	292	0.00	29.995 
02:00	26.0	26.0	26.0	70	17.6	2	5	338	0.00	29.996 
02:05	26.0	26.0	26.0	69	17.2	2	6	292	0.00	29.996 
02:10	26.0	26.0	26.0	69	17.2	1	4	315	0.00	29.996 
02:15	26.0	26.0	26.0	69	17.2	1	4	248	0.00	29.998 
02:20	25.8	25.8	25.8	69	17.1	2	3	315	0.00	29.998 
02:25	25.8	25.8	25.8	69	17.1	2	7	292	0.00	29.998 
02:30	25.7	25.7	25.7	69	17.0	2	5	270	0.00	30.003 
02:35	25.7	25.7	25.7	69	17.0	1	4	270	0.00	30.003 
02:40	25.6	25.6	25.6	70	17.2	1	3	338	0.00	30.003 
02:45	25.6	25.6	25.6	70	17.2	2	6	338	0.00	30.007 
02:50	25.4	25.4	25.4	71	17.3	1	4	292	0.00	30.007 
02:55	25.3	25.3	25.3	71	17.2	2	5	338	0.00	30.007 
03:00	25.1	25.1	25.1	72	17.4	2	4	248	0.00	30.012 
03:05	25.0	25.0	25.0	72	17.3	1	4	315	0.00	30.012 
03:10	24.8	24.8	24.8	73	17.4	1	4	292	0.00	30.012 
03:15	24.7	24.7	24.7	73	17.3	2	7	0	0.00	30.011 
03:20	24.5	24.5	24.5	73	17.1	2	4	292	0.00	30.011 
03:25	24.4	24.4	24.4	73	17.0	2	4	248	0.00	30.011 
03:30	24.2	24.2	24.2	74	17.1	1	5	315	0.00	30.012 
03:35	24.2	24.2	24.2	74	17.1	2	5	315	0.00	30.012 
03:40	24.1	24.1	24.1	75	17.3	1	3	248	0.00	30.012 
03:45	24.1	24.1	24.1	75	17.3	1	2	248	0.00	30.012 
03:50	23.9	23.9	23.9	75	17.2	1	4	315	0.00	30.012 
03:55	23.8	23.8	23.8	76	17.4	2	4	315	0.00	30.012 
04:00	23.8	23.8	23.8	76	17.4	2	4	248	0.00	30.013 
04:05	23.8	23.8	23.8	76	17.4	1	3	248	0.00	30.013 
04:10	23.8	23.8	23.8	76	17.4	2	4	248	0.00	30.013 
04:15	23.8	23.8	23.8	76	17.4	1	4	292	0.00	30.014 
04:20	23.6	23.6	23.6	77	17.5	2	4	270	0.00	30.014 
04:25	23.6	23.6	23.6	77	17.5	2	4	270	0.00	30.014 
04:30	23.6	23.6	23.6	77	17.5	2	4	270	0.00	30.014 
04:35	23.6	23.6	23.6	77	17.5	1	4	270	0.00	30.014 
04:40	23.5	23.5	23.5	77	17.4	1	3	270	0.00	30.014 
04:45	23.5	23.5	23.5	77	17.4	1	3	248	0.00	30.014 
04:50	23.5	23.5	23.5	78	17.7	2	4	270	0.00	30.014 
04:55	23.3	23.3	23.3	78	17.5	2	5	292	0.00	30.014 
05:00	23.2	23.2	23.2	79	17.7	1	3	292	0.00	30.023 
05:05	23.0	23.0	23.0	80	17.8	1	4	315	0.00	30.023 
05:10	22.9	22.9	22.9	81	18.0	1	3	270	0.00	30.023 
05:15	22.7	22.7	22.7	82	18.0	1	4	315	0.00	30.031 
05:20	22.4	22.4	22.4	81	17.5	3	10	292	0.00	30.031 
05:25	22.1	22.1	22.1	80	16.9	3	7	0	0.00	30.031 
05:30	21.8	21.8	21.8	77	15.7	3	9	0	0.00	30.043 
05:35	21.8	21.8	21.8	76	15.4	1	5	338	0.00	30.043 
05:40	21.6	21.6	21.6	73	14.3	2	6	0	0.00	30.043 
05:45	21.4	21.4	21.4	71	13.5	2	6	338	0.00	30.052 
05:50	21.3	21.3	21.3	69	12.7	2	6	270	0.00	30.052 
05:55	21.3	21.3	21.3	68	12.4	3	5	292	0.00	30.052 
06:00	21.3	21.3	21.3	67	12.1	2	5	270	0.00	30.066 
06:05	21.1	15.5	21.1	65	11.2	4	10	338	0.00	30.066 
06:10	21.1	21.1	21.1	64	10.9	2	6	315	0.00	30.066 
06:15	21.0	21.0	21.0	63	10.4	3	7	338	0.00	30.074 
06:20	20.8	20.8	20.8	63	10.2	3	6	338	0.00	30.074 
06:25	20.6	20.6	20.6	64	10.4	1	6	315	0.00	30.074 
06:30	20.5	20.5	20.5	64	10.3	1	4	315	0.00	30.078 
06:35	20.3	20.3	20.3	64	10.1	2	7	338	0.00	30.078 
06:40	20.3	20.3	20.3	64	10.1	2	6	315	0.00	30.078 
06:45	20.2	20.2	20.2	64	10.0	2	7	292	0.00	30.093 
06:50	20.0	20.0	20.0	64	9.8	2	6	292	0.00	30.093 
06:55	20.0	20.0	20.0	64	9.8	2	6	292	0.00	30.093 
07:00	19.9	19.9	19.9	65	10.1	3	9	292	0.00	30.100 
07:05	19.9	19.9	19.9	65	10.1	1	4	292	0.00	30.100 
07:10	19.7	19.7	19.7	64	9.5	3	11	338	0.00	30.100 
07:15	19.5	19.5	19.5	64	9.3	3	10	338	0.00	30.115 
07:20	19.2	19.2	19.2	65	9.4	3	7	338	0.00	30.115 
07:25	19.2	19.2	19.2	66	9.7	2	9	292	0.00	30.115 
07:30	19.1	19.1	19.1	66	9.6	3	6	338	0.00	30.130 
07:35	18.6	11.3	18.6	63	8.1	5	13	338	0.00	30.130 
07:40	18.1	10.7	18.1	60	6.6	5	13	0	0.00	30.130 
07:45	17.8	10.4	17.8	58	5.6	5	12	315	0.00	30.142 
07:50	17.5	11.3	17.5	57	4.9	4	10	315	0.00	30.142 
07:55	17.3	17.3	17.3	56	4.3	3	9	338	0.00	30.142 
08:00	17.0	17.0	17.0	56	4.0	2	6	338	0.00	30.155 
08:05	16.7	16.7	16.7	55	3.4	3	9	338	0.00	30.155 
08:10	16.5	16.5	16.5	55	3.2	3	7	338	0.00	30.155 
08:15	16.4	10.1	16.4	54	2.7	4	13	270	0.00	30.169 
08:20	16.2	16.2	16.2	54	2.5	3	10	315	0.00	30.169 
08:25	16.2	16.2	16.2	53	2.1	2	7	338	0.00	30.169 
08:30	16.2	16.2	16.2	52	1.7	3	7	315	0.00	30.181 
08:35	16.2	9.8	16.2	51	1.3	4	9	315	0.00	30.181 
08:40	16.2	16.2	16.2	50	0.9	3	7	315	0.00	30.181 
08:45	16.4	16.4	16.4	50	1.1	2	7	315	0.00	30.184 
08:50	16.5	16.5	16.5	50	1.1	2	6	315	0.00	30.184 
08:55	16.7	10.4	16.7	49	0.9	4	10	292	0.00	30.184 
09:00	16.5	10.2	16.5	49	0.7	4	12	292	0.00	30.195 
09:05	16.5	16.5	16.5	49	0.7	3	10	338	0.00	30.195 
09:10	16.4	8.8	16.4	49	0.6	5	10	338	0.00	30.195 
09:15	16.4	16.4	16.4	50	1.1	3	10	338	0.00	30.203 
09:20	16.5	16.5	16.5	50	1.1	3	10	315	0.00	30.203 
09:25	16.5	16.5	16.5	51	1.6	3	10	338	0.00	30.203 
09:30	16.7	16.7	16.7	50	1.3	3	9	292	0.00	30.206 
09:35	17.0	17.0	17.0	50	1.6	3	6	292	0.00	30.206 
09:40	17.3	17.3	17.3	50	1.9	3	10	338	0.00	30.206 
09:45	17.2	9.7	17.2	50	1.8	5	10	292	0.00	30.215 
09:50	17.0	10.7	17.0	51	2.0	4	10	338	0.00	30.215 
09:55	16.9	9.3	16.9	50	1.5	5	13	338	0.00	30.215 
10:00	17.0	17.0	17.0	51	2.0	3	9	338	0.00	30.218 
10:05	17.2	17.2	17.2	51	2.2	3	13	292	0.00	30.218 
10:10	17.3	11.1	17.3	50	1.9	4	11	292	0.00	30.218 
10:15	17.5	17.5	17.5	50	2.1	3	7	315	0.00	30.224 
10:20	17.3	11.1	17.3	49	1.5	4	13	338	0.00	30.224 
10:25	17.5	10.0	17.5	49	1.6	5	12	292	0.00	30.224 
10:30	17.5	11.3	17.5	49	1.6	4	9	315	0.00	30.229 
10:35	17.5	11.3	17.5	49	1.6	4	10	338	0.00	30.229 
10:40	17.3	9.8	17.3	48	1.0	5	12	315	0.00	30.229 
10:45	17.3	11.1	17.3	49	1.5	4	10	292	0.00	30.244 
10:50	17.3	11.1	17.3	49	1.5	4	10	338	0.00	30.244 
10:55	17.5	17.5	17.5	49	1.6	3	7	0	0.00	30.244 
11:00	17.7	17.7	17.7	49	1.8	3	7	270	0.00	30.245 
11:05	17.7	11.6	17.7	49	1.8	4	9	292	0.00	30.245 
11:10	18.1	18.1	18.1	49	2.2	2	7	292	0.00	30.245 
11:15	18.1	18.1	18.1	48	1.8	3	11	292	0.00	30.257 
11:20	18.1	18.1	18.1	48	1.8	3	6	315	0.00	30.257 
11:25	18.1	18.1	18.1	48	1.8	2	6	315	0.00	30.257 
11:30	17.8	17.8	17.8	48	1.5	3	7	315	0.00	30.267 
11:35	17.5	17.5	17.5	48	1.2	3	10	338	0.00	30.267 
11:40	17.5	17.5	17.5	50	2.1	3	10	0	0.00	30.267 
11:45	17.5	11.3	17.5	49	1.6	4	11	338	0.00	30.278 
11:50	17.5	17.5	17.5	50	2.1	3	9	292	0.00	30.278 
11:55	17.7	17.7	17.7	50	2.3	3	7	315	0.00	30.278 
12:00	17.8	17.8	17.8	50	2.3	2	7	338	0.00	30.287 
12:05	17.3	17.3	17.3	50	1.9	3	10	292	0.00	30.287 
12:10	17.2	17.2	17.2	51	2.2	2	7	292	0.00	30.287 
12:15	17.2	17.2	17.2	50	1.8	3	8	315	0.00	30.293 
12:20	17.2	17.2	17.2	49	1.4	3	9	338	0.00	30.293 
12:25	17.2	17.2	17.2	50	1.8	3	7	315	0.00	30.293 
12:30	16.9	16.9	16.9	50	1.5	3	7	338	0.00	30.296 
12:35	16.9	16.9	16.9	49	1.1	3	10	315	0.00	30.296 
12:40	16.9	16.9	16.9	49	1.1	2	6	338	0.00	30.296 
12:45	16.9	16.9	16.9	49	1.1	3	10	292	0.00	30.303 
12:50	17.2	17.2	17.2	50	1.8	2	11	338	0.00	30.303 
12:55	17.3	17.3	17.3	49	1.5	3	7	338	0.00	30.303 
13:00	17.3	17.3	17.3	49	1.5	3	7	0	0.00	30.304 
13:05	17.5	17.5	17.5	49	1.6	2	7	338	0.00	30.304 
13:10	17.7	17.7	17.7	49	1.8	1	6	338	0.00	30.304 
13:15	17.5	17.5	17.5	48	1.2	2	7	338	0.00	30.310 
13:20	17.3	17.3	17.3	48	1.0	3	10	315	0.00	30.310 
13:25	17.7	17.7	17.7	49	1.8	2	5	292	0.00	30.310 
13:30	17.7	17.7	17.7	48	1.4	3	9	292	0.00	30.311 
13:35	17.0	17.0	17.0	48	0.7	3	6	338	0.00	30.311 
13:40	17.0	17.0	17.0	47	0.3	2	6	338	0.00	30.311 
13:45	16.9	16.9	16.9	47	0.2	2	6	338	0.00	30.313 
13:50	16.9	16.9	16.9	48	0.6	2	6	292	0.00	30.313 
13:55	17.2	17.2	17.2	48	0.9	1	5	0	0.00	30.313 
14:00	17.3	17.3	17.3	48	1.0	2	9	338	0.00	30.314 
14:05	17.2	17.2	17.2	48	0.9	3	9	338	0.00	30.314 
14:10	17.0	17.0	17.0	46	-0.2	3	10	338	0.00	30.314 
14:15	17.0	17.0	17.0	47	0.3	2	7	338	0.00	30.319 
14:20	17.2	17.2	17.2	48	0.9	1	5	270	0.00	30.319 
14:25	17.3	17.3	17.3	46	0.1	2	6	292	0.00	30.319 
14:30	17.3	17.3	17.3	45	-0.4	2	7	315	0.00	30.324 
14:35	17.5	17.5	17.5	45	-0.2	2	7	292	0.00	30.324 
14:40	17.7	17.7	17.7	46	0.5	3	9	292	0.00	30.324 
14:45	17.5	11.3	17.5	45	-0.2	4	9	292	0.00	30.328 
14:50	17.7	17.7	17.7	45	0.0	3	6	292	0.00	30.328 
14:55	17.8	17.8	17.8	44	-0.4	3	6	315	0.00	30.328 
15:00	17.7	17.7	17.7	44	-0.5	2	6	338	0.00	30.330 
15:05	17.8	17.8	17.8	45	0.1	1	5	270	0.00	30.330 
15:10	18.1	18.1	18.1	46	0.8	2	7	270	0.00	30.330 
15:15	18.3	18.3	18.3	47	1.5	3	10	270	0.00	30.335 
15:20	18.1	18.1	18.1	46	0.8	2	8	315	0.00	30.335 
15:25	18.0	18.0	18.0	46	0.8	2	6	338	0.00	30.335 
15:30	18.1	18.1	18.1	46	0.8	2	6	338	0.00	30.345 
15:35	18.1	18.1	18.1	46	0.8	3	8	292	0.00	30.345 
15:40	18.3	18.3	18.3	46	1.0	2	9	315	0.00	30.345 
15:45	18.1	18.1	18.1	45	0.4	2	6	292	0.00	30.345 
15:50	18.1	18.1	18.1	44	-0.1	2	7	292	0.00	30.345 
15:55	17.8	17.8	17.8	44	-0.4	3	6	270	0.00	30.345 
16:00	17.8	17.8	17.8	43	-0.9	2	6	338	0.00	30.345 
16:05	17.7	17.7	17.7	43	-1.0	3	9	270	0.00	30.345 
16:10	17.5	17.5	17.5	42	-1.6	3	7	292	0.00	30.345 
16:15	17.5	17.5	17.5	43	-1.1	2	5	338	0.00	30.354 
16:20	17.7	17.7	17.7	43	-1.0	2	5	338	0.00	30.354 
16:25	17.5	17.5	17.5	44	-0.7	2	6	338	0.00	30.354 
16:30	17.7	17.7	17.7	44	-0.5	2	4	0	0.00	30.358 
16:35	17.8	17.8	17.8	44	-0.4	1	5	292	0.00	30.358 
16:40	17.8	17.8	17.8	44	-0.4	2	6	292	0.00	30.358 
16:45	17.8	17.8	17.8	43	-0.9	2	6	292	0.00	30.355 
16:50	17.8	17.8	17.8	43	-0.9	1	3	292	0.00	30.355 
16:55	17.7	17.7	17.7	42	-1.4	1	4	292	0.00	30.355 
17:00	17.7	17.7	17.7	42	-1.4	2	6	292	0.00	30.360 
17:05	17.5	17.5	17.5	42	-1.6	1	5	292	0.00	30.360 
17:10	17.3	17.3	17.3	42	-1.8	1	4	292	0.00	30.360 
17:15	17.5	17.5	17.5	43	-1.1	1	7	292	0.00	30.366 
17:20	17.3	17.3	17.3	41	-2.3	2	7	338	0.00	30.366 
17:25	17.2	17.2	17.2	42	-1.9	1	4	315	0.00	30.366 
17:30	17.2	17.2	17.2	42	-1.9	1	5	292	0.00	30.374 
17:35	17.2	17.2	17.2	42	-1.9	2	6	292	0.00	30.374 
17:40	17.0	17.0	17.0	41	-2.6	2	10	315	0.00	30.374 
17:45	16.9	16.9	16.9	42	-2.2	2	7	292	0.00	30.381 
17:50	16.9	16.9	16.9	42	-2.2	1	4	270	0.00	30.381 
17:55	16.9	16.9	16.9	42	-2.2	1	6	270	0.00	30.381 
18:00	16.7	16.7	16.7	43	-1.9	1	4	292	0.00	30.381 
18:05	16.5	16.5	16.5	43	-2.0	0	2	292	0.00	30.381 
18:10	16.2	16.2	16.2	43	-2.3	0	2	292	0.00	30.381 
18:15	16.2	16.2	16.2	43	-2.3	0	3	292	0.00	30.384 
18:20	16.1	16.1	16.1	44	-1.9	0	2	292	0.00	30.384 
18:25	15.9	15.9	15.9	44	-2.1	0	1	292	0.00	30.384 
18:30	15.6	15.6	15.6	45	-1.9	0	0	---	0.00	30.385 
18:35	15.4	15.4	15.4	45	-2.1	0	0	---	0.00	30.385 
18:40	15.2	15.2	15.2	46	-1.8	0	1	292	0.00	30.385 
18:45	15.1	15.1	15.1	46	-1.9	0	0	---	0.00	30.387 
18:50	14.9	14.9	14.9	46	-2.1	0	0	---	0.00	30.387 
18:55	14.6	14.6	14.6	47	-1.9	0	0	---	0.00	30.387 
19:00	14.3	14.3	14.3	47	-2.2	0	0	---	0.00	30.389 
19:05	14.0	14.0	14.0	48	-2.0	0	0	---	0.00	30.389 
19:10	13.6	13.6	13.6	49	-2.0	0	0	---	0.00	30.389 
19:15	13.5	13.5	13.5	50	-1.6	0	0	---	0.00	30.399 
19:20	13.1	13.1	13.1	50	-2.0	0	0	---	0.00	30.399 
19:25	12.9	12.9	12.9	51	-1.8	0	0	---	0.00	30.399 
19:30	12.8	12.8	12.8	52	-1.5	0	0	---	0.00	30.403 
19:35	12.4	12.4	12.4	53	-1.4	0	0	---	0.00	30.403 
19:40	12.3	12.3	12.3	54	-1.1	0	0	---	0.00	30.403 
19:45	11.9	11.9	11.9	54	-1.5	0	0	---	0.00	30.406 
19:50	11.7	11.7	11.7	55	-1.3	0	0	---	0.00	30.406 
19:55	11.4	11.4	11.4	56	-1.2	0	0	---	0.00	30.406 
20:00	11.2	11.2	11.2	57	-1.0	0	0	---	0.00	30.408 
20:05	11.2	11.2	11.2	58	-0.7	0	0	---	0.00	30.408 
20:10	10.9	10.9	10.9	59	-0.6	0	0	---	0.00	30.408 
20:15	10.9	10.9	10.9	59	-0.6	0	0	---	0.00	30.408 
20:20	10.7	10.7	10.7	60	-0.4	0	0	---	0.00	30.408 
20:25	10.5	10.5	10.5	61	-0.3	0	0	---	0.00	30.408 
20:30	10.2	10.2	10.2	61	-0.5	0	0	---	0.00	30.413 
20:35	10.0	10.0	10.0	62	-0.4	0	0	---	0.00	30.413 
20:40	10.4	10.4	10.4	62	-0.0	0	0	---	0.00	30.413 
20:45	10.7	10.7	10.7	62	0.3	0	0	---	0.00	30.414 
20:50	10.9	10.9	10.9	61	0.1	0	0	---	0.00	30.414 
20:55	10.9	10.9	10.9	61	0.1	0	0	---	0.00	30.414 
21:00	10.9	10.9	10.9	60	-0.2	0	0	---	0.00	30.416 
21:05	11.1	11.1	11.1	61	0.3	0	0	---	0.00	30.416 
21:10	11.6	11.6	11.6	60	0.4	0	1	292	0.00	30.416 
21:15	12.1	12.1	12.1	59	0.6	0	1	292	0.00	30.423 
21:20	12.8	12.8	12.8	58	0.8	0	1	292	0.00	30.423 
21:25	13.3	13.3	13.3	57	0.9	0	1	292	0.00	30.423 
21:30	13.6	13.6	13.6	56	0.9	0	2	292	0.00	30.424 
21:35	14.0	14.0	14.0	55	0.8	0	2	292	0.00	30.424 
21:40	14.0	14.0	14.0	55	0.8	0	1	292	0.00	30.424 
21:45	14.0	14.0	14.0	55	0.8	0	1	292	0.00	30.430 
21:50	14.1	14.1	14.1	55	0.9	0	1	292	0.00	30.430 
21:55	14.1	14.1	14.1	55	0.9	0	1	292	0.00	30.430 
22:00	14.1	14.1	14.1	55	0.9	0	2	292	0.00	30.430 
22:05	14.1	14.1	14.1	56	1.3	0	1	292	0.00	30.430 
22:10	14.3	14.3	14.3	55	1.1	0	2	292	0.00	30.430 
22:15	14.3	14.3	14.3	56	1.5	0	1	292	0.00	30.431 
22:20	14.3	14.3	14.3	56	1.5	0	2	292	0.00	30.431 
22:25	14.3	14.3	14.3	56	1.5	0	1	292	0.00	30.431 
22:30	14.3	14.3	14.3	57	1.9	0	1	292	0.00	30.432 
22:35	14.4	14.4	14.4	57	2.0	0	1	292	0.00	30.432 
22:40	14.4	14.4	14.4	57	2.0	0	1	292	0.00	30.432 
22:45	14.4	14.4	14.4	57	2.0	0	1	292	0.00	30.430 
22:50	14.4	14.4	14.4	57	2.0	0	1	292	0.00	30.430 
22:55	14.4	14.4	14.4	58	2.4	0	1	292	0.00	30.430 
23:00	14.4	14.4	14.4	58	2.4	0	1	292	0.00	30.421 
23:05	14.4	14.4	14.4	58	2.4	0	1	292	0.00	30.421 
23:10	14.4	14.4	14.4	58	2.4	0	1	292	0.00	30.421 
23:15	14.4	14.4	14.4	58	2.4	0	2	292	0.00	30.426 
23:20	14.4	14.4	14.4	58	2.4	0	1	292	0.00	30.426 
23:25	14.3	14.3	14.3	58	2.3	0	0	---	0.00	30.426 
23:30	14.3	14.3	14.3	58	2.3	0	1	292	0.00	30.417 
23:35	14.3	14.3	14.3	58	2.3	0	1	292	0.00	30.417 
23:40	14.3	14.3	14.3	58	2.3	0	0	---	0.00	30.417 
23:45	14.3	14.3	14.3	59	2.6	0	1	292	0.00	30.410 
23:50	14.1	14.1	14.1	59	2.4	0	1	292	0.00	30.410 
23:55	14.1	14.1	14.1	59	2.4	0	1	292	0.00	30.410 

CoCoRaHS
IN-AL-39
A2 Web Hosting
Creative Commons License
GoDaddy
search engine by freefind advanced

loaded 2018-11-17 14:02:29 • last modified 2010-11-18 10:43:29
Privacy PolicyDisclaimer
• wx.awcolley.com is powered by PmWiki v.2002016 •
• all content (unless otherwise noted) © 2018 A W Colley